sensor_id;sensor_type;location;lat;lon;timestamp;pressure;altitude;pressure_sealevel;temperature;humidity
35647;BME280;28680;45.642;13.756;2023-02-12T00:01:37;102886.81;;;5.65;100.00
35647;BME280;28680;45.642;13.756;2023-02-12T00:04:03;102871.09;;;5.31;100.00
35647;BME280;28680;45.642;13.756;2023-02-12T00:06:29;102863.56;;;5.20;100.00
35647;BME280;28680;45.642;13.756;2023-02-12T00:08:56;102866.97;;;5.22;100.00
35647;BME280;28680;45.642;13.756;2023-02-12T00:11:28;102873.63;;;5.35;100.00
35647;BME280;28680;45.642;13.756;2023-02-12T00:13:54;102882.09;;;5.45;100.00
35647;BME280;28680;45.642;13.756;2023-02-12T00:16:25;102875.19;;;5.42;100.00
35647;BME280;28680;45.642;13.756;2023-02-12T00:18:54;102877.69;;;5.47;100.00
35647;BME280;28680;45.642;13.756;2023-02-12T00:21:21;102873.38;;;5.46;100.00
35647;BME280;28680;45.642;13.756;2023-02-12T00:23:47;102862.56;;;5.25;100.00
35647;BME280;28680;45.642;13.756;2023-02-12T00:26:17;102851.06;;;5.34;100.00
35647;BME280;28680;45.642;13.756;2023-02-12T00:28:43;102859.84;;;5.30;100.00
35647;BME280;28680;45.642;13.756;2023-02-12T00:31:29;102861.47;;;5.36;100.00
35647;BME280;28680;45.642;13.756;2023-02-12T00:34:20;102859.28;;;5.55;100.00
35647;BME280;28680;45.642;13.756;2023-02-12T00:36:46;102860.91;;;5.60;100.00
35647;BME280;28680;45.642;13.756;2023-02-12T00:43:01;102876.13;;;5.40;100.00
35647;BME280;28680;45.642;13.756;2023-02-12T00:45:55;102874.72;;;5.23;100.00
35647;BME280;28680;45.642;13.756;2023-02-12T00:48:26;102872.44;;;5.10;100.00
35647;BME280;28680;45.642;13.756;2023-02-12T00:50:53;102874.44;;;4.97;100.00
35647;BME280;28680;45.642;13.756;2023-02-12T00:53:19;102870.19;;;4.93;100.00
35647;BME280;28680;45.642;13.756;2023-02-12T00:55:45;102878.81;;;4.95;100.00
35647;BME280;28680;45.642;13.756;2023-02-12T00:58:14;102871.03;;;4.93;100.00
35647;BME280;28680;45.642;13.756;2023-02-12T01:00:44;102858.13;;;4.88;100.00
35647;BME280;28680;45.642;13.756;2023-02-12T01:03:19;102875.59;;;4.82;100.00
35647;BME280;28680;45.642;13.756;2023-02-12T01:06:04;102866.78;;;4.89;100.00
35647;BME280;28680;45.642;13.756;2023-02-12T01:08:33;102865.09;;;4.88;100.00
35647;BME280;28680;45.642;13.756;2023-02-12T01:11:02;102860.72;;;4.88;100.00
35647;BME280;28680;45.642;13.756;2023-02-12T01:13:35;102861.16;;;5.11;100.00
35647;BME280;28680;45.642;13.756;2023-02-12T01:16:03;102858.47;;;5.14;100.00
35647;BME280;28680;45.642;13.756;2023-02-12T01:18:31;102869.97;;;5.03;100.00
35647;BME280;28680;45.642;13.756;2023-02-12T01:20:57;102867.56;;;4.94;100.00
35647;BME280;28680;45.642;13.756;2023-02-12T01:23:23;102860.72;;;4.88;100.00
35647;BME280;28680;45.642;13.756;2023-02-12T01:25:57;102849.47;;;4.88;100.00
35647;BME280;28680;45.642;13.756;2023-02-12T01:28:22;102847.41;;;5.02;100.00
35647;BME280;28680;45.642;13.756;2023-02-12T01:30:48;102847.16;;;5.16;100.00
35647;BME280;28680;45.642;13.756;2023-02-12T01:33:27;102839.25;;;5.19;100.00
35647;BME280;28680;45.642;13.756;2023-02-12T01:40:00;102837.75;;;5.09;100.00
35647;BME280;28680;45.642;13.756;2023-02-12T01:42:42;102845.34;;;5.18;100.00
35647;BME280;28680;45.642;13.756;2023-02-12T01:47:44;102838.03;;;4.95;100.00
35647;BME280;28680;45.642;13.756;2023-02-12T01:50:17;102842.25;;;5.01;100.00
35647;BME280;28680;45.642;13.756;2023-02-12T01:52:49;102837.16;;;4.96;100.00
35647;BME280;28680;45.642;13.756;2023-02-12T01:55:16;102840.38;;;5.07;100.00
35647;BME280;28680;45.642;13.756;2023-02-12T01:57:46;102836.78;;;5.13;100.00
35647;BME280;28680;45.642;13.756;2023-02-12T02:00:44;102828.22;;;5.08;100.00
35647;BME280;28680;45.642;13.756;2023-02-12T02:03:13;102829.63;;;4.82;100.00
35647;BME280;28680;45.642;13.756;2023-02-12T02:06:03;102830.66;;;4.74;100.00
35647;BME280;28680;45.642;13.756;2023-02-12T02:08:32;102823.78;;;4.71;100.00
35647;BME280;28680;45.642;13.756;2023-02-12T02:14:58;102816.72;;;4.76;100.00
35647;BME280;28680;45.642;13.756;2023-02-12T02:18:14;102811.66;;;4.70;100.00
35647;BME280;28680;45.642;13.756;2023-02-12T02:39:59;102802.16;;;4.69;100.00
35647;BME280;28680;45.642;13.756;2023-02-12T02:49:50;102796.13;;;4.67;100.00
35647;BME280;28680;45.642;13.756;2023-02-12T02:53:10;102796.81;;;4.75;100.00
35647;BME280;28680;45.642;13.756;2023-02-12T02:56:38;102789.63;;;4.88;100.00
35647;BME280;28680;45.642;13.756;2023-02-12T02:59:10;102795.66;;;4.88;100.00
35647;BME280;28680;45.642;13.756;2023-02-12T03:01:43;102787.91;;;4.85;100.00
35647;BME280;28680;45.642;13.756;2023-02-12T03:04:23;102785.47;;;4.78;100.00
35647;BME280;28680;45.642;13.756;2023-02-12T03:10:52;102782.09;;;4.74;100.00
35647;BME280;28680;45.642;13.756;2023-02-12T03:16:39;102778.47;;;4.39;100.00
35647;BME280;28680;45.642;13.756;2023-02-12T03:19:19;102779.19;;;4.46;100.00
35647;BME280;28680;45.642;13.756;2023-02-12T03:22:17;102779.00;;;4.57;100.00
35647;BME280;28680;45.642;13.756;2023-02-12T03:24:53;102781.69;;;4.52;100.00
35647;BME280;28680;45.642;13.756;2023-02-12T03:30:00;102786.19;;;4.44;100.00
35647;BME280;28680;45.642;13.756;2023-02-12T03:32:57;102793.94;;;4.45;100.00
35647;BME280;28680;45.642;13.756;2023-02-12T03:35:41;102794.75;;;4.49;100.00
35647;BME280;28680;45.642;13.756;2023-02-12T03:38:48;102790.53;;;4.43;100.00
35647;BME280;28680;45.642;13.756;2023-02-12T03:41:27;102784.47;;;4.43;100.00
35647;BME280;28680;45.642;13.756;2023-02-12T03:47:00;102792.25;;;4.44;100.00
35647;BME280;28680;45.642;13.756;2023-02-12T03:49:35;102777.97;;;4.64;100.00
35647;BME280;28680;45.642;13.756;2023-02-12T03:52:04;102777.22;;;4.59;100.00
35647;BME280;28680;45.642;13.756;2023-02-12T03:54:30;102782.97;;;4.75;100.00
35647;BME280;28680;45.642;13.756;2023-02-12T03:59:40;102775.91;;;4.80;100.00
35647;BME280;28680;45.642;13.756;2023-02-12T04:02:07;102758.34;;;4.49;100.00
35647;BME280;28680;45.642;13.756;2023-02-12T04:04:33;102756.75;;;4.42;100.00
35647;BME280;28680;45.642;13.756;2023-02-12T04:29:27;102811.94;;;4.56;100.00
35647;BME280;28680;45.642;13.756;2023-02-12T04:39:37;102797.38;;;4.89;100.00
35647;BME280;28680;45.642;13.756;2023-02-12T04:42:22;102787.81;;;4.92;100.00
35647;BME280;28680;45.642;13.756;2023-02-12T04:45:03;102784.34;;;4.89;100.00
35647;BME280;28680;45.642;13.756;2023-02-12T04:47:30;102778.88;;;5.03;100.00
35647;BME280;28680;45.642;13.756;2023-02-12T04:49:56;102778.13;;;4.97;100.00
35647;BME280;28680;45.642;13.756;2023-02-12T04:52:25;102800.88;;;4.88;100.00
35647;BME280;28680;45.642;13.756;2023-02-12T04:54:50;102807.03;;;4.86;100.00
35647;BME280;28680;45.642;13.756;2023-02-12T04:57:16;102813.50;;;4.65;100.00
35647;BME280;28680;45.642;13.756;2023-02-12T04:59:42;102811.09;;;4.56;100.00
35647;BME280;28680;45.642;13.756;2023-02-12T05:02:08;102816.56;;;4.42;100.00
35647;BME280;28680;45.642;13.756;2023-02-12T05:04:34;102805.44;;;4.34;100.00
35647;BME280;28680;45.642;13.756;2023-02-12T05:07:00;102809.88;;;4.28;100.00
35647;BME280;28680;45.642;13.756;2023-02-12T05:09:41;102809.94;;;4.25;100.00
35647;BME280;28680;45.642;13.756;2023-02-12T05:12:07;102800.47;;;4.21;100.00
35647;BME280;28680;45.642;13.756;2023-02-12T05:14:33;102798.81;;;4.17;100.00
35647;BME280;28680;45.642;13.756;2023-02-12T05:17:05;102804.91;;;4.16;100.00
35647;BME280;28680;45.642;13.756;2023-02-12T05:19:44;102799.78;;;4.12;100.00
35647;BME280;28680;45.642;13.756;2023-02-12T05:22:09;102804.13;;;4.13;100.00
35647;BME280;28680;45.642;13.756;2023-02-12T05:24:41;102796.22;;;4.17;100.00
35647;BME280;28680;45.642;13.756;2023-02-12T05:27:07;102796.97;;;4.25;100.00
35647;BME280;28680;45.642;13.756;2023-02-12T05:29:35;102791.69;;;4.28;100.00
35647;BME280;28680;45.642;13.756;2023-02-12T05:32:01;102796.06;;;4.26;100.00
35647;BME280;28680;45.642;13.756;2023-02-12T05:34:28;102796.16;;;4.22;100.00
35647;BME280;28680;45.642;13.756;2023-02-12T05:36:54;102796.09;;;4.23;100.00
35647;BME280;28680;45.642;13.756;2023-02-12T05:39:20;102796.16;;;4.22;100.00
35647;BME280;28680;45.642;13.756;2023-02-12T05:41:46;102789.34;;;4.15;100.00
35647;BME280;28680;45.642;13.756;2023-02-12T05:44:12;102788.44;;;4.16;100.00
35647;BME280;28680;45.642;13.756;2023-02-12T05:46:41;102794.09;;;4.39;100.00
35647;BME280;28680;45.642;13.756;2023-02-12T05:49:08;102791.28;;;4.50;100.00
35647;BME280;28680;45.642;13.756;2023-02-12T05:51:34;102794.06;;;4.41;100.00
35647;BME280;28680;45.642;13.756;2023-02-12T05:54:04;102784.72;;;4.29;100.00
35647;BME280;28680;45.642;13.756;2023-02-12T05:56:35;102804.84;;;4.19;100.00
35647;BME280;28680;45.642;13.756;2023-02-12T05:59:17;102800.69;;;4.10;100.00
35647;BME280;28680;45.642;13.756;2023-02-12T06:01:46;102809.22;;;4.17;100.00
35647;BME280;28680;45.642;13.756;2023-02-12T06:04:21;102800.47;;;4.21;100.00
35647;BME280;28680;45.642;13.756;2023-02-12T06:06:50;102809.06;;;4.26;100.00
35647;BME280;28680;45.642;13.756;2023-02-12T06:09:16;102797.88;;;4.21;100.00
35647;BME280;28680;45.642;13.756;2023-02-12T06:11:45;102790.88;;;4.25;100.00
35647;BME280;28680;45.642;13.756;2023-02-12T06:14:16;102805.56;;;4.27;100.00
35647;BME280;28680;45.642;13.756;2023-02-12T06:16:47;102796.06;;;4.26;100.00
35647;BME280;28680;45.642;13.756;2023-02-12T06:19:15;102805.31;;;4.40;100.00
35647;BME280;28680;45.642;13.756;2023-02-12T06:21:41;102812.22;;;4.42;100.00
35647;BME280;28680;45.642;13.756;2023-02-12T06:24:08;102821.72;;;4.43;100.00
35647;BME280;28680;45.642;13.756;2023-02-12T06:26:34;102815.59;;;4.46;100.00
35647;BME280;28680;45.642;13.756;2023-02-12T06:29:00;102819.94;;;4.45;100.00
35647;BME280;28680;45.642;13.756;2023-02-12T06:31:30;102807.03;;;4.42;100.00
35647;BME280;28680;45.642;13.756;2023-02-12T06:34:00;102812.59;;;4.22;100.00
35647;BME280;28680;45.642;13.756;2023-02-12T06:36:27;102815.03;;;4.32;100.00
35647;BME280;28680;45.642;13.756;2023-02-12T06:38:53;102823.34;;;4.51;100.00
35647;BME280;28680;45.642;13.756;2023-02-12T06:41:20;102830.06;;;4.61;100.00
35647;BME280;28680;45.642;13.756;2023-02-12T06:43:47;102824.94;;;4.58;100.00
35647;BME280;28680;45.642;13.756;2023-02-12T06:46:13;102831.81;;;4.60;100.00
35647;BME280;28680;45.642;13.756;2023-02-12T06:48:40;102847.25;;;4.68;94.03
35647;BME280;28680;45.642;13.756;2023-02-12T06:51:15;102837.69;;;4.68;88.55
35647;BME280;28680;45.642;13.756;2023-02-12T06:53:42;102847.31;;;4.65;91.39
35647;BME280;28680;45.642;13.756;2023-02-12T06:56:10;102851.63;;;4.67;88.73
35647;BME280;28680;45.642;13.756;2023-02-12T06:58:54;102852.41;;;4.71;86.40
35647;BME280;28680;45.642;13.756;2023-02-12T07:01:25;102841.34;;;4.61;87.18
35647;BME280;28680;45.642;13.756;2023-02-12T07:03:57;102849.84;;;4.68;92.17
35647;BME280;28680;45.642;13.756;2023-02-12T07:06:25;102853.25;;;4.72;91.53
35647;BME280;28680;45.642;13.756;2023-02-12T07:08:51;102853.22;;;4.75;98.75
35647;BME280;28680;45.642;13.756;2023-02-12T07:11:17;102859.25;;;4.77;99.31
35647;BME280;28680;45.642;13.756;2023-02-12T07:13:44;102860.69;;;4.92;93.20
35647;BME280;28680;45.642;13.756;2023-02-12T07:16:13;102862.06;;;5.06;91.08
35647;BME280;28680;45.642;13.756;2023-02-12T07:18:41;102863.66;;;5.14;87.49
35647;BME280;28680;45.642;13.756;2023-02-12T07:21:09;102863.50;;;5.21;88.76
35647;BME280;28680;45.642;13.756;2023-02-12T07:23:36;102869.31;;;5.33;87.92
35647;BME280;28680;45.642;13.756;2023-02-12T07:26:10;102871.88;;;5.36;89.23
35647;BME280;28680;45.642;13.756;2023-02-12T07:28:36;102863.03;;;5.43;85.77
35647;BME280;28680;45.642;13.756;2023-02-12T07:31:12;102872.47;;;5.49;85.86
35647;BME280;28680;45.642;13.756;2023-02-12T07:33:40;102868.69;;;5.62;77.94
35647;BME280;28680;45.642;13.756;2023-02-12T07:36:13;102873.88;;;5.62;80.87
35647;BME280;28680;45.642;13.756;2023-02-12T07:38:40;102873.84;;;5.63;89.42
35647;BME280;28680;45.642;13.756;2023-02-12T07:41:19;102882.00;;;5.48;86.60
35647;BME280;28680;45.642;13.756;2023-02-12T07:43:47;102873.16;;;5.55;90.45
35647;BME280;28680;45.642;13.756;2023-02-12T07:46:23;102881.69;;;5.62;96.69
35647;BME280;28680;45.642;13.756;2023-02-12T07:48:51;102872.16;;;5.61;100.00
35647;BME280;28680;45.642;13.756;2023-02-12T07:51:18;102882.56;;;5.62;100.00
35647;BME280;28680;45.642;13.756;2023-02-12T07:54:02;102869.53;;;5.62;100.00
35647;BME280;28680;45.642;13.756;2023-02-12T07:56:30;102870.25;;;5.69;97.15
35647;BME280;28680;45.642;13.756;2023-02-12T07:59:03;102877.09;;;5.73;98.51
35647;BME280;28680;45.642;13.756;2023-02-12T08:04:03;102879.53;;;5.81;97.48
35647;BME280;28680;45.642;13.756;2023-02-12T08:06:33;102887.16;;;5.89;91.94
35647;BME280;28680;45.642;13.756;2023-02-12T08:09:03;102878.31;;;5.94;87.31
35647;BME280;28680;45.642;13.756;2023-02-12T08:11:29;102880.00;;;5.98;92.53
35647;BME280;28680;45.642;13.756;2023-02-12T08:13:57;102880.78;;;6.02;90.92
35647;BME280;28680;45.642;13.756;2023-02-12T08:16:25;102882.34;;;6.09;95.26
35647;BME280;28680;45.642;13.756;2023-02-12T08:18:52;102891.81;;;6.12;86.18
35647;BME280;28680;45.642;13.756;2023-02-12T08:21:24;102897.63;;;6.23;100.00
35647;BME280;28680;45.642;13.756;2023-02-12T08:23:52;102894.72;;;6.35;100.00
35647;BME280;28680;45.642;13.756;2023-02-12T08:26:35;102907.38;;;6.49;100.00
35647;BME280;28680;45.642;13.756;2023-02-12T08:29:05;102913.38;;;6.53;100.00
35647;BME280;28680;45.642;13.756;2023-02-12T08:31:38;102911.50;;;6.58;100.00
35647;BME280;28680;45.642;13.756;2023-02-12T08:34:05;102916.38;;;6.70;100.00
35647;BME280;28680;45.642;13.756;2023-02-12T08:41:42;102913.59;;;6.76;100.00
35647;BME280;28680;45.642;13.756;2023-02-12T08:44:12;102920.28;;;6.87;100.00
35647;BME280;28680;45.642;13.756;2023-02-12T08:46:52;102920.88;;;6.96;100.00
35647;BME280;28680;45.642;13.756;2023-02-12T08:49:39;102922.53;;;6.99;100.00
35647;BME280;28680;45.642;13.756;2023-02-12T09:02:17;102951.63;;;7.16;100.00
35647;BME280;28680;45.642;13.756;2023-02-12T09:04:46;102949.69;;;7.25;100.00
35647;BME280;28680;45.642;13.756;2023-02-12T09:07:11;102970.47;;;7.28;100.00
35647;BME280;28680;45.642;13.756;2023-02-12T09:09:37;102958.34;;;7.27;100.00
35647;BME280;28680;45.642;13.756;2023-02-12T09:12:04;102963.41;;;7.31;100.00
35647;BME280;28680;45.642;13.756;2023-02-12T09:14:50;102966.56;;;7.42;100.00
35647;BME280;28680;45.642;13.756;2023-02-12T09:17:16;102963.03;;;7.45;100.00
35647;BME280;28680;45.642;13.756;2023-02-12T09:19:42;102971.66;;;7.47;100.00
35647;BME280;28680;45.642;13.756;2023-02-12T09:22:08;102973.47;;;7.45;100.00
35647;BME280;28680;45.642;13.756;2023-02-12T09:24:35;102968.94;;;7.50;100.00
35647;BME280;28680;45.642;13.756;2023-02-12T09:27:02;102985.97;;;7.64;100.00
35647;BME280;28680;45.642;13.756;2023-02-12T09:29:27;102991.16;;;7.65;100.00
35647;BME280;28680;45.642;13.756;2023-02-12T09:31:53;102987.22;;;7.80;100.00
35647;BME280;28680;45.642;13.756;2023-02-12T09:34:19;102987.22;;;7.80;100.00
35647;BME280;28680;45.642;13.756;2023-02-12T09:36:45;102989.19;;;7.73;100.00
35647;BME280;28680;45.642;13.756;2023-02-12T09:39:40;102989.75;;;7.83;100.00
35647;BME280;28680;45.642;13.756;2023-02-12T09:45:45;102998.31;;;7.88;100.00
35647;BME280;28680;45.642;13.756;2023-02-12T09:51:06;103012.56;;;8.06;100.00
35647;BME280;28680;45.642;13.756;2023-02-12T09:53:41;103014.91;;;8.15;100.00
35647;BME280;28680;45.642;13.756;2023-02-12T09:56:20;103005.91;;;8.24;100.00
35647;BME280;28680;45.642;13.756;2023-02-12T09:58:54;103015.16;;;8.34;100.00
35647;BME280;28680;45.642;13.756;2023-02-12T10:05:24;103026.50;;;8.62;100.00
35647;BME280;28680;45.642;13.756;2023-02-12T10:10:52;103026.59;;;8.85;100.00
35647;BME280;28680;45.642;13.756;2023-02-12T10:14:29;103023.25;;;9.05;100.00
35647;BME280;28680;45.642;13.756;2023-02-12T10:16:47;103029.25;;;9.09;100.00
35647;BME280;28680;45.642;13.756;2023-02-12T10:25:55;103035.78;;;9.69;100.00
35647;BME280;28680;45.642;13.756;2023-02-12T10:28:37;103025.88;;;10.00;100.00
35647;BME280;28680;45.642;13.756;2023-02-12T10:33:47;103034.25;;;10.74;100.00
35647;BME280;28680;45.642;13.756;2023-02-12T10:45:50;103024.56;;;11.74;100.00
35647;BME280;28680;45.642;13.756;2023-02-12T10:48:22;103023.69;;;12.81;100.00
35647;BME280;28680;45.642;13.756;2023-02-12T10:53:44;103029.72;;;13.52;100.00
35647;BME280;28680;45.642;13.756;2023-02-12T10:56:18;103029.13;;;13.78;100.00
35647;BME280;28680;45.642;13.756;2023-02-12T10:58:59;103027.06;;;13.18;100.00
35647;BME280;28680;45.642;13.756;2023-02-12T11:01:36;103029.94;;;13.31;100.00
35647;BME280;28680;45.642;13.756;2023-02-12T11:18:30;103023.66;;;12.12;100.00
35647;BME280;28680;45.642;13.756;2023-02-12T11:24:46;103029.75;;;12.48;100.00
35647;BME280;28680;45.642;13.756;2023-02-12T11:27:29;103019.63;;;13.09;100.00
35647;BME280;28680;45.642;13.756;2023-02-12T11:30:20;103019.41;;;13.47;100.00
35647;BME280;28680;45.642;13.756;2023-02-12T11:32:47;103012.44;;;13.94;100.00
35647;BME280;28680;45.642;13.756;2023-02-12T11:35:24;103023.03;;;14.08;100.00
35647;BME280;28680;45.642;13.756;2023-02-12T11:38:02;103014.03;;;14.12;100.00
35647;BME280;28680;45.642;13.756;2023-02-12T11:40:32;103011.88;;;14.19;100.00
35647;BME280;28680;45.642;13.756;2023-02-12T11:43:04;103014.31;;;14.68;100.00
35647;BME280;28680;45.642;13.756;2023-02-12T11:45:52;103010.03;;;14.96;100.00
35647;BME280;28680;45.642;13.756;2023-02-12T11:48:36;103011.34;;;15.17;100.00
35647;BME280;28680;45.642;13.756;2023-02-12T11:51:07;103003.97;;;15.37;100.00
35647;BME280;28680;45.642;13.756;2023-02-12T11:53:50;103005.47;;;15.41;100.00
35647;BME280;28680;45.642;13.756;2023-02-12T11:56:17;103006.34;;;15.69;100.00
35647;BME280;28680;45.642;13.756;2023-02-12T11:58:48;103007.50;;;15.79;100.00
35647;BME280;28680;45.642;13.756;2023-02-12T12:01:29;103001.66;;;15.74;100.00
35647;BME280;28680;45.642;13.756;2023-02-12T12:04:16;103008.34;;;15.79;100.00
35647;BME280;28680;45.642;13.756;2023-02-12T12:07:12;103008.59;;;16.16;100.00
35647;BME280;28680;45.642;13.756;2023-02-12T12:10:03;103009.84;;;16.11;100.00
35647;BME280;28680;45.642;13.756;2023-02-12T12:12:47;103003.72;;;16.23;100.00
35647;BME280;28680;45.642;13.756;2023-02-12T12:15:29;103008.97;;;16.37;100.00
35647;BME280;28680;45.642;13.756;2023-02-12T12:18:55;103000.50;;;16.45;100.00
35647;BME280;28680;45.642;13.756;2023-02-12T12:25:25;103002.97;;;16.74;100.00
35647;BME280;28680;45.642;13.756;2023-02-12T12:29:01;102995.25;;;16.97;100.00
35647;BME280;28680;45.642;13.756;2023-02-12T12:31:13;103001.28;;;17.11;100.00
35647;BME280;28680;45.642;13.756;2023-02-12T12:49:47;103001.50;;;18.30;100.00
35647;BME280;28680;45.642;13.756;2023-02-12T12:59:05;103007.69;;;18.07;100.00
35647;BME280;28680;45.642;13.756;2023-02-12T13:13:27;103022.34;;;18.48;100.00
35647;BME280;28680;45.642;13.756;2023-02-12T13:22:22;103037.13;;;18.63;100.00
35647;BME280;28680;45.642;13.756;2023-02-12T13:25:02;103034.72;;;18.60;100.00
35647;BME280;28680;45.642;13.756;2023-02-12T13:27:34;103040.91;;;18.72;100.00
35647;BME280;28680;45.642;13.756;2023-02-12T13:33:31;103037.81;;;19.01;100.00
35647;BME280;28680;45.642;13.756;2023-02-12T13:35:53;103034.22;;;19.47;69.91
35647;BME280;28680;45.642;13.756;2023-02-12T13:38:31;103032.13;;;19.51;71.71
35647;BME280;28680;45.642;13.756;2023-02-12T13:41:08;103035.88;;;19.48;94.39
35647;BME280;28680;45.642;13.756;2023-02-12T13:48:59;103036.25;;;19.55;59.19
35647;BME280;28680;45.642;13.756;2023-02-12T13:51:57;103043.38;;;19.54;69.17
35647;BME280;28680;45.642;13.756;2023-02-12T13:54:52;103038.41;;;19.72;46.24
35647;BME280;28680;45.642;13.756;2023-02-12T13:57:22;103032.59;;;19.78;63.32
35647;BME280;28680;45.642;13.756;2023-02-12T13:59:53;103029.91;;;19.78;97.49
35647;BME280;28680;45.642;13.756;2023-02-12T14:05:02;103036.66;;;19.94;70.09
35647;BME280;28680;45.642;13.756;2023-02-12T14:07:52;103044.66;;;20.26;42.50
35647;BME280;28680;45.642;13.756;2023-02-12T14:13:22;103042.03;;;18.92;37.45
35647;BME280;28680;45.642;13.756;2023-02-12T14:19:36;103042.88;;;18.46;41.25
35647;BME280;28680;45.642;13.756;2023-02-12T14:22:13;103036.31;;;18.74;38.99
35647;BME280;28680;45.642;13.756;2023-02-12T14:24:57;103045.22;;;19.20;38.38
35647;BME280;28680;45.642;13.756;2023-02-12T14:45:03;103045.75;;;20.23;37.71
35647;BME280;28680;45.642;13.756;2023-02-12T14:50:15;103053.38;;;19.96;36.16
35647;BME280;28680;45.642;13.756;2023-02-12T14:53:20;103048.06;;;20.17;36.22
35647;BME280;28680;45.642;13.756;2023-02-12T14:55:50;103056.25;;;20.36;36.19
35647;BME280;28680;45.642;13.756;2023-02-12T14:58:55;103058.38;;;20.21;35.89
35647;BME280;28680;45.642;13.756;2023-02-12T15:02:02;103049.63;;;19.98;37.55
35647;BME280;28680;45.642;13.756;2023-02-12T15:04:36;103061.34;;;19.96;36.04
35647;BME280;28680;45.642;13.756;2023-02-12T15:07:26;103050.34;;;20.00;36.60
35647;BME280;28680;45.642;13.756;2023-02-12T15:13:01;103055.94;;;19.63;37.67
35647;BME280;28680;45.642;13.756;2023-02-12T15:18:52;103059.88;;;18.79;37.51
35647;BME280;28680;45.642;13.756;2023-02-12T15:21:26;103063.78;;;18.50;37.28
35647;BME280;28680;45.642;13.756;2023-02-12T15:24:39;103067.13;;;18.06;37.34
35647;BME280;28680;45.642;13.756;2023-02-12T15:27:05;103063.72;;;17.67;37.74
35647;BME280;28680;45.642;13.756;2023-02-12T15:29:52;103067.25;;;17.54;38.32
35647;BME280;28680;45.642;13.756;2023-02-12T15:32:26;103073.66;;;17.13;38.87
35647;BME280;28680;45.642;13.756;2023-02-12T15:34:54;103071.66;;;16.51;40.12
35647;BME280;28680;45.642;13.756;2023-02-12T15:37:29;103079.84;;;15.65;41.93
35647;BME280;28680;45.642;13.756;2023-02-12T15:39:59;103076.53;;;15.76;42.45
35647;BME280;28680;45.642;13.756;2023-02-12T15:42:36;103082.38;;;15.38;43.58
35647;BME280;28680;45.642;13.756;2023-02-12T15:47:43;103077.13;;;14.79;47.79
35647;BME280;28680;45.642;13.756;2023-02-12T15:50:15;103081.19;;;14.38;51.37
35647;BME280;28680;45.642;13.756;2023-02-12T15:52:44;103094.44;;;14.07;55.87
35647;BME280;28680;45.642;13.756;2023-02-12T15:55:18;103095.97;;;13.95;61.25
35647;BME280;28680;45.642;13.756;2023-02-12T15:57:57;103102.97;;;14.28;63.24
35647;BME280;28680;45.642;13.756;2023-02-12T16:00:44;103095.78;;;14.30;65.26
35647;BME280;28680;45.642;13.756;2023-02-12T16:03:35;103105.59;;;13.96;70.04
35647;BME280;28680;45.642;13.756;2023-02-12T16:06:11;103108.47;;;13.91;69.73
35647;BME280;28680;45.642;13.756;2023-02-12T16:08:44;103101.75;;;13.70;71.46
35647;BME280;28680;45.642;13.756;2023-02-12T16:11:12;103117.25;;;13.42;67.14
35647;BME280;28680;45.642;13.756;2023-02-12T16:13:52;103116.09;;;13.13;69.57
35647;BME280;28680;45.642;13.756;2023-02-12T16:16:47;103122.25;;;13.14;65.02
35647;BME280;28680;45.642;13.756;2023-02-12T16:19:31;103124.47;;;13.04;70.29
35647;BME280;28680;45.642;13.756;2023-02-12T16:22:13;103125.66;;;13.16;66.52
35647;BME280;28680;45.642;13.756;2023-02-12T16:24:48;103142.09;;;13.38;69.21
35647;BME280;28680;45.642;13.756;2023-02-12T16:27:20;103136.78;;;13.21;72.01
35647;BME280;28680;45.642;13.756;2023-02-12T16:29:53;103137.75;;;13.20;65.41
35647;BME280;28680;45.642;13.756;2023-02-12T16:32:35;103137.19;;;13.13;64.07
35647;BME280;28680;45.642;13.756;2023-02-12T16:48:25;103152.31;;;12.19;73.05
35647;BME280;28680;45.642;13.756;2023-02-12T16:50:56;103155.88;;;11.99;75.76
35647;BME280;28680;45.642;13.756;2023-02-12T16:53:39;103167.59;;;12.11;78.09
35647;BME280;28680;45.642;13.756;2023-02-12T16:56:15;103173.22;;;11.83;85.10
35647;BME280;28680;45.642;13.756;2023-02-12T16:58:44;103171.31;;;11.86;84.88
35647;BME280;28680;45.642;13.756;2023-02-12T17:01:22;103167.13;;;11.82;85.59
35647;BME280;28680;45.642;13.756;2023-02-12T17:03:49;103166.22;;;11.83;85.65
35647;BME280;28680;45.642;13.756;2023-02-12T17:06:22;103184.47;;;12.07;84.84
35647;BME280;28680;45.642;13.756;2023-02-12T17:08:49;103183.38;;;11.71;88.95
35647;BME280;28680;45.642;13.756;2023-02-12T17:11:16;103182.84;;;11.84;87.84
35647;BME280;28680;45.642;13.756;2023-02-12T17:13:48;103186.75;;;11.55;90.97
35647;BME280;28680;45.642;13.756;2023-02-12T17:16:14;103191.38;;;11.49;93.73
35647;BME280;28680;45.642;13.756;2023-02-12T17:18:41;103191.28;;;11.51;94.86
35647;BME280;28680;45.642;13.756;2023-02-12T17:23:41;103194.44;;;11.18;100.00
35647;BME280;28680;45.642;13.756;2023-02-12T17:26:10;103195.91;;;11.03;100.00
35647;BME280;28680;45.642;13.756;2023-02-12T17:28:37;103200.81;;;11.12;100.00
35647;BME280;28680;45.642;13.756;2023-02-12T17:31:08;103197.59;;;11.26;100.00
35647;BME280;28680;45.642;13.756;2023-02-12T17:33:34;103203.06;;;11.22;100.00
35647;BME280;28680;45.642;13.756;2023-02-12T17:36:03;103196.66;;;11.07;100.00
35647;BME280;28680;45.642;13.756;2023-02-12T17:38:29;103197.13;;;11.17;100.00
35647;BME280;28680;45.642;13.756;2023-02-12T17:40:57;103203.44;;;11.12;100.00